Time;durP1;ratioP1;P1;durP2;ratioP2;P2;SDS_P1;SDS_P2;PMS_P1;PMS_P2;Temp;Humidity;BMP_temperature;BMP_pressure;BME280_temperature;BME280_humidity;BME280_pressure;Samples;Min_cycle;Max_cycle;Signal;HPM_P1;HPM_P2
2023/01/27 00:02:28;;;;;;;25.90;15.33;;;3.80;99.90;;;;;;4992916;28;20210;-82
2023/01/27 00:04:57;;;;;;;22.90;14.17;;;3.90;99.90;;;;;;4993577;28;20553;-82
2023/01/27 00:07:28;;;;;;;21.40;14.53;;;3.90;99.90;;;;;;4993397;28;20198;-81
2023/01/27 00:09:57;;;;;;;24.13;15.77;;;3.90;99.90;;;;;;4993366;28;20199;-82
2023/01/27 00:15:16;;;;;;;25.93;16.57;;;3.90;99.90;;;;;;4993235;28;20202;-82
2023/01/27 00:17:44;;;;;;;25.33;16.30;;;3.90;99.90;;;;;;4993119;28;20250;-82
2023/01/27 00:24:34;;;;;;;27.17;15.20;;;3.90;99.90;;;;;;4993189;28;20704;-82
2023/01/27 00:25:57;;;;;;;26.70;15.87;;;3.90;99.90;;;;;;4992972;28;20216;-82
2023/01/27 00:28:30;;;;;;;27.40;15.50;;;3.90;99.90;;;;;;4993015;28;20200;-82
2023/01/27 00:30:59;;;;;;;25.00;15.67;;;3.90;99.90;;;;;;4992897;28;20206;-81
2023/01/27 00:33:28;;;;;;;30.70;15.97;;;3.90;99.90;;;;;;4992864;28;20255;-81
2023/01/27 00:35:58;;;;;;;30.13;17.80;;;3.90;99.90;;;;;;4987711;28;20575;-80
2023/01/27 00:38:29;;;;;;;28.17;16.20;;;3.90;99.90;;;;;;4990611;28;20227;-80
2023/01/27 00:41:19;;;;;;;25.97;15.20;;;3.90;99.90;;;;;;4991683;28;20200;-81
2023/01/27 00:43:51;;;;;;;24.53;15.90;;;3.90;99.90;;;;;;4991365;28;20684;-80
2023/01/27 00:46:21;;;;;;;25.93;15.87;;;3.90;99.90;;;;;;4991212;28;20235;-81
2023/01/27 00:48:51;;;;;;;25.73;15.10;;;3.90;99.90;;;;;;4992611;28;20204;-80
2023/01/27 00:51:21;;;;;;;24.77;14.67;;;4.00;99.90;;;;;;4992477;28;20314;-81
2023/01/27 00:53:50;;;;;;;29.47;16.30;;;4.00;99.90;;;;;;4991661;28;20255;-81
2023/01/27 00:56:19;;;;;;;23.87;14.77;;;4.00;99.90;;;;;;4992741;28;20688;-79
2023/01/27 00:58:49;;;;;;;29.50;16.50;;;4.00;99.90;;;;;;4991288;28;20219;-81
2023/01/27 01:01:18;;;;;;;26.03;16.70;;;4.00;99.90;;;;;;4991456;28;20231;-81
2023/01/27 01:03:48;;;;;;;32.30;18.23;;;4.00;99.90;;;;;;4992529;28;20199;-81
2023/01/27 01:06:19;;;;;;;36.67;19.73;;;4.00;99.90;;;;;;4991484;28;20252;-81
2023/01/27 01:08:50;;;;;;;33.47;20.40;;;4.00;99.90;;;;;;4992732;28;20191;-81
2023/01/27 01:11:20;;;;;;;37.40;20.90;;;4.00;99.90;;;;;;4993177;28;20238;-81
2023/01/27 01:13:51;;;;;;;31.70;19.33;;;4.00;99.90;;;;;;4996602;28;20207;-82
2023/01/27 01:16:24;;;;;;;35.50;19.77;;;4.00;99.90;;;;;;4996564;28;20653;-82
2023/01/27 01:18:56;;;;;;;30.60;19.13;;;4.00;99.90;;;;;;4996341;28;20225;-81
2023/01/27 01:21:25;;;;;;;30.63;18.37;;;4.10;99.90;;;;;;4996182;28;20219;-82
2023/01/27 01:23:54;;;;;;;25.10;13.43;;;4.10;99.90;;;;;;4996586;28;20676;-81
2023/01/27 01:26:23;;;;;;;13.67;8.10;;;4.10;99.90;;;;;;4996471;28;20204;-82
2023/01/27 01:28:56;;;;;;;13.67;7.57;;;4.20;99.90;;;;;;4994659;28;20311;-82
2023/01/27 01:31:27;;;;;;;10.90;6.50;;;4.30;99.90;;;;;;4995042;28;20749;-82
2023/01/27 01:33:56;;;;;;;5.80;3.90;;;4.40;99.90;;;;;;4996164;28;20193;-82
2023/01/27 01:36:25;;;;;;;3.33;2.93;;;4.50;99.90;;;;;;4988842;28;20204;-82
2023/01/27 01:38:55;;;;;;;7.63;2.93;;;4.60;99.90;;;;;;4977266;28;20315;-81
2023/01/27 01:41:25;;;;;;;5.10;2.80;;;4.70;99.90;;;;;;4976494;28;20300;-79
2023/01/27 01:43:56;;;;;;;3.43;2.40;;;4.70;99.90;;;;;;4976558;28;20196;-79
2023/01/27 01:46:25;;;;;;;2.13;1.93;;;4.80;99.90;;;;;;4976551;28;20198;-79
2023/01/27 01:48:56;;;;;;;2.10;2.00;;;4.80;99.90;;;;;;4976684;28;20205;-79
2023/01/27 01:51:30;;;;;;;2.87;1.83;;;4.80;99.90;;;;;;4974839;28;20238;-79
2023/01/27 01:54:03;;;;;;;2.07;1.80;;;4.90;99.90;;;;;;4976388;28;20222;-79
2023/01/27 01:56:37;;;;;;;11.63;6.17;;;4.90;99.90;;;;;;4976291;28;20205;-81
2023/01/27 01:59:11;;;;;;;7.63;5.53;;;4.90;99.90;;;;;;4974972;28;20224;-81
2023/01/27 02:01:41;;;;;;;4.00;3.30;;;4.90;99.90;;;;;;4975119;28;20215;-82
2023/01/27 02:04:17;;;;;;;3.10;2.80;;;4.90;99.90;;;;;;4974992;28;20204;-81
2023/01/27 02:06:53;;;;;;;2.60;2.47;;;4.90;99.90;;;;;;4974825;28;20210;-81
2023/01/27 02:09:25;;;;;;;2.63;1.97;;;5.00;99.90;;;;;;4976203;28;20198;-81
2023/01/27 02:11:54;;;;;;;2.80;2.00;;;5.00;99.90;;;;;;4974701;28;20292;-82
2023/01/27 02:14:24;;;;;;;2.60;1.90;;;5.00;99.90;;;;;;4976062;28;20216;-82
2023/01/27 02:16:56;;;;;;;2.50;2.03;;;5.10;99.90;;;;;;4986201;28;20204;-82
2023/01/27 02:19:35;;;;;;;3.63;1.93;;;5.10;99.90;;;;;;4976053;28;20235;-81
2023/01/27 02:22:11;;;;;;;3.33;2.43;;;5.10;99.90;;;;;;4975803;28;20198;-82
2023/01/27 02:24:46;;;;;;;2.20;2.00;;;5.10;99.90;;;;;;4975085;28;20199;-83
2023/01/27 02:27:16;;;;;;;3.13;2.10;;;5.10;99.90;;;;;;4975815;28;20201;-83
2023/01/27 02:29:45;;;;;;;2.87;2.03;;;5.10;99.90;;;;;;4975838;28;20237;-82
2023/01/27 02:32:26;;;;;;;6.00;2.40;;;5.10;99.90;;;;;;4975497;28;20557;-82
2023/01/27 02:34:57;;;;;;;2.57;2.30;;;5.10;99.90;;;;;;4990814;28;20252;-81
2023/01/27 02:37:26;;;;;;;2.40;2.20;;;5.10;99.90;;;;;;4974271;28;20227;-81
2023/01/27 02:39:57;;;;;;;2.13;2.03;;;5.20;99.90;;;;;;4974322;28;20232;-82
2023/01/27 02:42:28;;;;;;;3.00;2.17;;;5.10;99.90;;;;;;4975764;28;20561;-81
2023/01/27 02:44:57;;;;;;;2.20;2.10;;;5.10;99.90;;;;;;4990310;28;20296;-82
2023/01/27 02:47:26;;;;;;;2.73;2.13;;;5.20;99.90;;;;;;4974174;28;20537;-83
2023/01/27 02:49:55;;;;;;;6.67;2.20;;;5.20;99.90;;;;;;4974057;28;20807;-82
2023/01/27 02:52:26;;;;;;;4.10;2.30;;;5.20;99.90;;;;;;4974184;28;20202;-82
2023/01/27 02:54:55;;;;;;;2.23;2.03;;;5.20;99.90;;;;;;4990262;28;20206;-82
2023/01/27 02:57:24;;;;;;;2.70;1.80;;;5.20;99.90;;;;;;4973701;28;20206;-81
2023/01/27 03:00:13;;;;;;;3.13;1.97;;;5.20;99.90;;;;;;4975167;28;20214;-81
2023/01/27 03:02:44;;;;;;;4.70;2.40;;;5.20;99.90;;;;;;4990098;28;20200;-80
2023/01/27 03:05:14;;;;;;;4.07;2.37;;;5.20;99.90;;;;;;4974917;28;20194;-80
2023/01/27 03:07:43;;;;;;;2.30;1.97;;;5.20;99.90;;;;;;4973362;28;20230;-81
2023/01/27 03:10:14;;;;;;;2.57;2.00;;;5.20;99.90;;;;;;4973466;28;20209;-80
2023/01/27 03:12:44;;;;;;;4.27;2.40;;;5.20;99.90;;;;;;4974890;28;20235;-81
2023/01/27 03:18:14;;;;;;;4.20;2.23;;;5.20;99.90;;;;;;4989433;28;20229;-81
2023/01/27 03:20:46;;;;;;;5.07;2.60;;;5.20;99.90;;;;;;4989818;28;20243;-81
2023/01/27 03:23:17;;;;;;;4.80;2.80;;;5.20;99.90;;;;;;4989628;28;20291;-81
2023/01/27 03:25:50;;;;;;;4.47;2.30;;;5.20;99.90;;;;;;4989715;28;20202;-82
2023/01/27 03:28:19;;;;;;;3.23;2.40;;;5.20;99.90;;;;;;4989618;28;20213;-81
2023/01/27 03:31:18;;;;;;;7.10;2.57;;;5.10;99.90;;;;;;4985063;28;20204;-81
2023/01/27 03:33:52;;;;;;;3.63;2.00;;;5.10;99.90;;;;;;4973427;28;20293;-83
2023/01/27 03:47:50;;;;;;;5.73;2.43;;;5.00;99.90;;;;;;4974516;28;20213;-79
2023/01/27 03:50:36;;;;;;;5.17;3.00;;;5.10;99.90;;;;;;4974165;28;20240;-79
2023/01/27 03:53:05;;;;;;;5.77;2.17;;;5.00;99.90;;;;;;4974227;28;20199;-81
2023/01/27 03:55:36;;;;;;;3.63;2.10;;;5.00;99.90;;;;;;4974036;28;20210;-80
2023/01/27 03:58:18;;;;;;;4.23;2.60;;;5.00;99.90;;;;;;4974333;28;20193;-79
2023/01/27 04:00:50;;;;;;;5.53;2.20;;;5.00;99.90;;;;;;4973913;28;20299;-81
2023/01/27 04:08:56;;;;;;;4.43;2.53;;;4.90;99.90;;;;;;4973946;28;20569;-80
2023/01/27 04:14:12;;;;;;;4.50;2.13;;;4.90;99.90;;;;;;4895544;29;20211;-80
2023/01/27 04:16:41;;;;;;;4.70;2.20;;;4.90;99.90;;;;;;4895639;29;20212;-81
2023/01/27 04:19:12;;;;;;;4.10;2.27;;;4.90;99.90;;;;;;4895544;29;20308;-80
2023/01/27 04:21:42;;;;;;;4.27;2.07;;;4.90;99.90;;;;;;4895192;29;20726;-80
2023/01/27 04:24:22;;;;;;;6.30;2.00;;;4.90;99.90;;;;;;4895303;29;20216;-81
2023/01/27 04:26:54;;;;;;;3.50;2.13;;;4.90;99.90;;;;;;4895379;29;20209;-80
2023/01/27 04:29:25;;;;;;;3.90;2.30;;;4.90;99.90;;;;;;4895061;29;20209;-80
2023/01/27 04:31:54;;;;;;;4.53;2.43;;;4.90;99.90;;;;;;4895201;29;20216;-79
2023/01/27 04:34:25;;;;;;;4.73;2.03;;;4.90;99.90;;;;;;4895128;29;20209;-81
2023/01/27 04:36:57;;;;;;;9.03;2.83;;;4.90;99.90;;;;;;4894902;29;20753;-80
2023/01/27 04:39:26;;;;;;;5.33;2.57;;;4.90;99.90;;;;;;4895012;29;20216;-80
2023/01/27 04:41:56;;;;;;;6.30;2.80;;;5.00;99.90;;;;;;4895043;29;20231;-80
2023/01/27 04:44:25;;;;;;;5.17;2.37;;;5.00;99.90;;;;;;4879349;29;20216;-79
2023/01/27 04:46:54;;;;;;;4.27;2.43;;;4.90;99.90;;;;;;4894847;29;20204;-81
2023/01/27 04:49:26;;;;;;;4.90;2.53;;;4.90;99.90;;;;;;4893810;29;20252;-82
2023/01/27 04:51:55;;;;;;;2.87;2.47;;;4.90;99.90;;;;;;4942160;28;20210;-82
2023/01/27 04:54:33;;;;;;;6.63;2.67;;;4.90;99.90;;;;;;4972795;28;20209;-80
2023/01/27 04:57:24;;;;;;;3.83;2.60;;;4.90;99.90;;;;;;4973391;28;20216;-81
2023/01/27 05:00:00;;;;;;;6.37;2.30;;;4.90;99.90;;;;;;4973622;28;20589;-79
2023/01/27 05:02:29;;;;;;;2.27;2.17;;;4.90;99.90;;;;;;4973251;28;20650;-83
2023/01/27 05:05:03;;;;;;;4.40;2.20;;;4.90;99.90;;;;;;4973362;28;20279;-82
2023/01/27 05:07:35;;;;;;;6.17;2.40;;;4.90;99.90;;;;;;4973410;28;20202;-83
2023/01/27 05:10:05;;;;;;;6.40;2.27;;;4.90;99.90;;;;;;4985675;28;20798;-82
2023/01/27 05:12:34;;;;;;;4.23;2.17;;;4.90;99.90;;;;;;4987099;28;20207;-82
2023/01/27 05:15:18;;;;;;;4.10;2.10;;;4.90;99.90;;;;;;4973164;28;20197;-82
2023/01/27 05:17:52;;;;;;;4.83;2.37;;;4.90;99.90;;;;;;4973290;28;20210;-81
2023/01/27 05:20:22;;;;;;;9.43;2.93;;;4.90;99.90;;;;;;4973220;28;20545;-82
2023/01/27 05:23:33;;;;;;;4.17;2.53;;;4.90;99.90;;;;;;4973366;28;20227;-81
2023/01/27 05:25:43;;;;;;;4.50;2.57;;;4.80;99.90;;;;;;4980634;28;20209;-80
2023/01/27 05:28:20;;;;;;;4.63;2.80;;;4.80;99.90;;;;;;4992554;28;20279;-80
2023/01/27 05:30:49;;;;;;;4.63;2.77;;;4.70;99.90;;;;;;4992657;28;20210;-80
2023/01/27 05:33:18;;;;;;;3.33;2.10;;;4.80;99.90;;;;;;4992306;28;20190;-80
2023/01/27 05:35:48;;;;;;;4.40;2.60;;;4.80;99.90;;;;;;4992626;28;20200;-80
2023/01/27 05:38:17;;;;;;;5.47;2.40;;;4.80;99.90;;;;;;4992302;28;20637;-80
2023/01/27 05:40:46;;;;;;;3.43;2.30;;;4.80;99.90;;;;;;4992192;28;20205;-80
2023/01/27 05:43:14;;;;;;;4.27;2.37;;;4.70;99.90;;;;;;4992219;28;20224;-80
2023/01/27 05:45:43;;;;;;;4.77;2.23;;;4.70;99.90;;;;;;4992151;28;20208;-79
2023/01/27 05:48:12;;;;;;;3.93;2.20;;;4.70;99.90;;;;;;4992282;28;20296;-79
2023/01/27 05:50:58;;;;;;;4.57;2.53;;;4.70;99.90;;;;;;4985659;28;20229;-80
2023/01/27 05:53:27;;;;;;;4.10;2.10;;;4.80;99.90;;;;;;4985989;28;20212;-80
2023/01/27 05:55:56;;;;;;;5.70;2.53;;;4.70;99.90;;;;;;4992243;28;20202;-80
2023/01/27 05:58:25;;;;;;;7.73;2.80;;;4.70;99.90;;;;;;4995964;28;20256;-78
2023/01/27 06:00:55;;;;;;;4.60;3.83;;;4.70;99.90;;;;;;5015601;28;20720;-79
2023/01/27 06:03:24;;;;;;;6.63;2.90;;;4.70;99.90;;;;;;5015482;28;20215;-80
2023/01/27 06:05:56;;;;;;;9.17;2.83;;;4.70;99.90;;;;;;5014842;28;20629;-79
2023/01/27 06:08:28;;;;;;;4.97;2.60;;;4.70;99.90;;;;;;5015274;28;20200;-80
2023/01/27 06:10:58;;;;;;;7.13;3.43;;;4.60;99.90;;;;;;5004580;28;20315;-80
2023/01/27 06:13:27;;;;;;;8.63;5.77;;;4.60;99.90;;;;;;4995644;28;20201;-80
2023/01/27 06:15:56;;;;;;;4.63;3.03;;;4.60;99.90;;;;;;4994987;28;20201;-79
2023/01/27 06:18:29;;;;;;;5.57;3.70;;;4.50;99.90;;;;;;4995241;28;20210;-80
2023/01/27 06:21:00;;;;;;;3.93;3.13;;;4.50;99.90;;;;;;4995205;28;20233;-80
2023/01/27 06:23:29;;;;;;;5.37;4.60;;;4.50;99.90;;;;;;4995381;28;20283;-80
2023/01/27 06:26:02;;;;;;;2.77;2.00;;;4.40;99.90;;;;;;4994999;28;20198;-78
2023/01/27 06:28:31;;;;;;;4.43;2.50;;;4.40;99.90;;;;;;5000903;28;20192;-78
2023/01/27 06:31:06;;;;;;;6.43;2.83;;;4.30;99.90;;;;;;5014823;28;20188;-78
2023/01/27 06:33:35;;;;;;;4.73;3.10;;;4.30;99.90;;;;;;5013912;28;20670;-78
2023/01/27 06:36:09;;;;;;;3.23;2.77;;;4.20;99.90;;;;;;5011689;28;20211;-79
2023/01/27 06:38:38;;;;;;;5.30;2.87;;;4.20;99.90;;;;;;4992737;28;20224;-79
2023/01/27 06:41:07;;;;;;;6.50;3.03;;;4.20;99.90;;;;;;4982084;28;20679;-78
2023/01/27 06:43:36;;;;;;;6.67;2.80;;;4.20;99.90;;;;;;4974585;28;20202;-79
2023/01/27 06:46:05;;;;;;;3.17;2.87;;;4.20;99.90;;;;;;4989177;28;20258;-79
2023/01/27 06:48:36;;;;;;;4.50;2.47;;;4.20;99.90;;;;;;4994312;28;20204;-79
2023/01/27 06:51:07;;;;;;;4.60;2.87;;;4.10;99.90;;;;;;4992525;28;20235;-80
2023/01/27 06:53:37;;;;;;;4.87;2.67;;;4.10;99.90;;;;;;4985479;28;20753;-78
2023/01/27 06:56:07;;;;;;;8.60;3.37;;;4.10;99.90;;;;;;4974335;28;20212;-81
2023/01/27 06:58:36;;;;;;;4.23;2.33;;;4.00;99.90;;;;;;4993341;28;20280;-79
2023/01/27 07:01:06;;;;;;;5.17;3.10;;;4.00;99.90;;;;;;4993259;28;20734;-80
2023/01/27 07:03:36;;;;;;;6.13;2.73;;;4.00;99.90;;;;;;4993209;28;20288;-81
2023/01/27 07:06:06;;;;;;;5.33;3.73;;;4.00;99.90;;;;;;4993552;28;20218;-80
2023/01/27 07:08:35;;;;;;;7.90;4.03;;;4.00;99.90;;;;;;4993934;28;20196;-80
2023/01/27 07:11:05;;;;;;;9.13;4.43;;;4.00;99.90;;;;;;4993965;28;20227;-81
2023/01/27 07:13:34;;;;;;;19.07;8.90;;;4.00;99.90;;;;;;4992877;28;20552;-79
2023/01/27 07:16:03;;;;;;;11.60;6.03;;;4.00;99.90;;;;;;4993798;28;20663;-79
2023/01/27 07:18:32;;;;;;;88.70;27.03;;;4.00;99.90;;;;;;4994561;28;20209;-78
2023/01/27 07:21:01;;;;;;;42.93;16.20;;;4.00;99.90;;;;;;4991749;28;20204;-79
2023/01/27 07:23:31;;;;;;;21.37;10.00;;;4.00;99.90;;;;;;4992030;28;20236;-79
2023/01/27 07:26:02;;;;;;;7.20;4.63;;;4.10;99.90;;;;;;5001482;28;20287;-81
2023/01/27 07:28:40;;;;;;;8.57;4.43;;;4.10;99.90;;;;;;4994865;28;20196;-79
2023/01/27 07:31:09;;;;;;;6.07;4.27;;;4.10;99.90;;;;;;4987318;28;20601;-82
2023/01/27 07:33:38;;;;;;;6.80;4.00;;;4.10;99.90;;;;;;4994108;28;20227;-80
2023/01/27 07:36:07;;;;;;;8.77;5.70;;;4.10;99.90;;;;;;4993672;28;20273;-80
2023/01/27 07:38:39;;;;;;;7.87;4.30;;;4.10;99.90;;;;;;4992629;28;20611;-79
2023/01/27 07:41:08;;;;;;;12.20;5.50;;;4.10;99.90;;;;;;4993966;28;20214;-79
2023/01/27 07:43:37;;;;;;;14.90;6.43;;;4.10;99.90;;;;;;4993709;28;20238;-80
2023/01/27 07:46:08;;;;;;;45.50;20.70;;;4.10;99.90;;;;;;4988141;28;20204;-80
2023/01/27 07:48:37;;;;;;;19.57;9.60;;;4.20;99.90;;;;;;4992356;28;20196;-78
2023/01/27 07:51:06;;;;;;;17.80;8.20;;;4.20;99.90;;;;;;5006716;28;20222;-79
2023/01/27 07:53:37;;;;;;;17.17;10.30;;;4.20;99.90;;;;;;5013044;28;20197;-78
2023/01/27 07:56:10;;;;;;;15.57;6.90;;;4.30;99.90;;;;;;5013065;28;20201;-79
2023/01/27 07:58:39;;;;;;;15.03;6.00;;;4.40;99.90;;;;;;5012941;28;20292;-80
2023/01/27 08:01:10;;;;;;;71.87;33.17;;;4.40;99.90;;;;;;5012787;28;20614;-81
2023/01/27 08:03:39;;;;;;;35.63;16.67;;;4.40;99.90;;;;;;5012561;28;20215;-78
2023/01/27 08:06:10;;;;;;;12.17;6.20;;;4.50;99.90;;;;;;5012765;28;20192;-81
2023/01/27 08:08:40;;;;;;;14.90;6.33;;;4.50;99.90;;;;;;5012867;28;20762;-79
2023/01/27 08:11:12;;;;;;;16.33;7.63;;;4.50;99.90;;;;;;5012867;28;20676;-77
2023/01/27 08:13:41;;;;;;;22.93;9.67;;;4.60;99.90;;;;;;5013025;28;20207;-76
2023/01/27 08:16:13;;;;;;;79.77;41.50;;;4.60;99.90;;;;;;5012912;28;20224;-79
2023/01/27 08:18:42;;;;;;;21.60;12.00;;;4.60;99.90;;;;;;5006288;28;20251;-81
2023/01/27 08:21:13;;;;;;;15.43;6.47;;;4.60;99.90;;;;;;4974866;28;20236;-79
2023/01/27 08:23:43;;;;;;;16.13;6.23;;;4.70;99.90;;;;;;4993032;28;20236;-79
2023/01/27 08:26:12;;;;;;;6.93;4.67;;;4.70;99.90;;;;;;4985990;28;20215;-77
2023/01/27 08:28:41;;;;;;;10.27;6.20;;;4.70;99.90;;;;;;4973654;28;20205;-77
2023/01/27 08:31:12;;;;;;;9.60;5.73;;;4.80;99.90;;;;;;4973253;28;20194;-78
2023/01/27 08:33:42;;;;;;;16.57;11.03;;;4.70;99.90;;;;;;4973028;28;20214;-79
2023/01/27 08:36:23;;;;;;;16.67;12.77;;;4.80;99.90;;;;;;4973344;28;20220;-79
2023/01/27 08:38:53;;;;;;;10.17;8.23;;;4.80;99.90;;;;;;4973286;28;20207;-79
2023/01/27 08:41:26;;;;;;;14.00;12.17;;;4.80;99.90;;;;;;4987543;28;20266;-78
2023/01/27 08:43:56;;;;;;;16.17;10.43;;;4.80;99.90;;;;;;4992869;28;20241;-79
2023/01/27 08:46:25;;;;;;;94.90;48.97;;;4.90;99.90;;;;;;4990811;28;20216;-79
2023/01/27 08:48:53;;;;;;;75.43;36.80;;;4.90;99.90;;;;;;4993102;28;20201;-79
2023/01/27 08:51:22;;;;;;;46.60;25.80;;;5.00;99.90;;;;;;4972507;28;20232;-79
2023/01/27 08:53:53;;;;;;;82.73;40.87;;;5.10;99.90;;;;;;4976573;28;20264;-78
2023/01/27 08:56:22;;;;;;;40.90;22.67;;;5.20;99.90;;;;;;4985087;28;20722;-79
2023/01/27 08:59:03;;;;;;;20.90;12.23;;;5.30;99.90;;;;;;4991217;28;20548;-79
2023/01/27 09:01:32;;;;;;;10.30;5.43;;;5.40;99.90;;;;;;4990888;28;20228;-79
2023/01/27 09:04:01;;;;;;;13.73;4.77;;;5.30;99.90;;;;;;4992249;28;20230;-80
2023/01/27 09:06:29;;;;;;;11.47;4.50;;;5.20;99.90;;;;;;4992470;28;20202;-82
2023/01/27 09:09:09;;;;;;;112.47;25.93;;;5.30;99.90;;;;;;4992177;28;20204;-79
2023/01/27 09:11:41;;;;;;;9.63;4.97;;;5.30;99.90;;;;;;4988875;28;20695;-81
2023/01/27 09:14:11;;;;;;;192.53;39.70;;;5.30;99.90;;;;;;4991969;28;20256;-81
2023/01/27 09:16:40;;;;;;;5.83;4.00;;;5.30;99.90;;;;;;4975081;28;20233;-81
2023/01/27 09:19:09;;;;;;;8.23;4.30;;;5.40;99.90;;;;;;4972573;28;20298;-81
2023/01/27 09:21:38;;;;;;;9.13;6.40;;;5.40;99.90;;;;;;4969512;28;20206;-81
2023/01/27 09:24:08;;;;;;;7.87;3.40;;;5.50;99.90;;;;;;4964047;28;20256;-79
2023/01/27 09:26:37;;;;;;;6.57;3.03;;;5.60;99.90;;;;;;4963617;28;20207;-80
2023/01/27 09:29:06;;;;;;;32.23;9.90;;;5.60;99.90;;;;;;4972811;28;20202;-78
2023/01/27 09:31:35;;;;;;;34.80;11.37;;;5.60;99.90;;;;;;4972453;28;20198;-77
2023/01/27 09:34:04;;;;;;;16.90;6.30;;;5.60;99.90;;;;;;4975758;28;20230;-80
2023/01/27 09:36:36;;;;;;;6.13;3.40;;;5.60;99.90;;;;;;4976640;28;20207;-79
2023/01/27 09:39:08;;;;;;;6.17;3.40;;;5.60;99.90;;;;;;4976534;28;20618;-79
2023/01/27 09:42:04;;;;;;;14.07;6.30;;;5.60;99.90;;;;;;4976416;28;20654;-80
2023/01/27 09:45:06;;;;;;;6.53;3.73;;;5.60;99.90;;;;;;4955261;28;20584;-81
2023/01/27 09:48:00;;;;;;;11.00;5.47;;;5.60;99.90;;;;;;4938031;29;20204;-84
2023/01/27 09:50:41;;;;;;;2.77;2.43;;;5.60;99.90;;;;;;4944567;29;20249;-79
2023/01/27 09:53:38;;;;;;;19.43;9.80;;;5.60;99.90;;;;;;4952982;29;20211;-79
2023/01/27 09:56:13;;;;;;;8.77;5.27;;;5.60;99.90;;;;;;4939255;29;20218;-80
2023/01/27 09:59:08;;;;;;;4.73;3.17;;;5.60;99.90;;;;;;4947146;29;20221;-80
2023/01/27 10:01:47;;;;;;;6.17;3.00;;;5.50;99.90;;;;;;4953489;29;20202;-77
2023/01/27 10:04:55;;;;;;;5.13;2.93;;;5.60;99.90;;;;;;4945384;29;20245;-79
2023/01/27 10:07:53;;;;;;;5.13;2.90;;;5.60;99.90;;;;;;4937467;29;20199;-79
2023/01/27 10:10:41;;;;;;;4.93;3.83;;;5.60;99.90;;;;;;4864123;29;20615;-80
2023/01/27 10:13:20;;;;;;;15.17;6.57;;;5.60;99.90;;;;;;4878280;29;20207;-79
2023/01/27 10:16:12;;;;;;;8.33;4.00;;;5.60;99.90;;;;;;4878212;29;20213;-79
2023/01/27 10:19:06;;;;;;;11.93;4.10;;;5.80;99.90;;;;;;4878734;29;20297;-81
2023/01/27 10:21:46;;;;;;;5.77;2.50;;;5.80;99.90;;;;;;4878616;29;20211;-76
2023/01/27 10:24:25;;;;;;;4.73;2.87;;;5.80;99.60;;;;;;4870874;29;20357;-77
2023/01/27 10:26:59;;;;;;;19.37;7.13;;;5.80;99.90;;;;;;4859758;29;20216;-77
2023/01/27 10:29:35;;;;;;;7.43;2.93;;;5.90;98.00;;;;;;4859698;29;20216;-77
2023/01/27 10:32:08;;;;;;;9.77;3.90;;;5.90;98.90;;;;;;4859961;29;20621;-79
2023/01/27 10:34:44;;;;;;;14.43;6.57;;;5.90;98.90;;;;;;4860033;29;20222;-80
2023/01/27 10:37:21;;;;;;;4.93;3.63;;;6.00;97.80;;;;;;4860069;29;20305;-81
2023/01/27 10:40:00;;;;;;;12.37;5.60;;;6.00;96.10;;;;;;4859321;29;20311;-77
2023/01/27 10:42:36;;;;;;;6.93;3.73;;;6.00;97.20;;;;;;4859772;29;20703;-79
2023/01/27 10:45:23;;;;;;;19.10;8.27;;;6.00;96.80;;;;;;4858700;29;20566;-77
2023/01/27 10:48:05;;;;;;;8.67;4.00;;;6.10;94.80;;;;;;4930681;28;20693;-79
2023/01/27 10:50:39;;;;;;;3.77;2.97;;;6.10;95.40;;;;;;4952052;28;20240;-80
2023/01/27 10:53:13;;;;;;;7.93;3.73;;;6.00;93.60;;;;;;4936843;29;20202;-79
2023/01/27 10:56:05;;;;;;;24.63;11.03;;;6.00;94.50;;;;;;4944354;28;20262;-80
2023/01/27 10:58:46;;;;;;;10.07;4.47;;;6.00;93.40;;;;;;4955305;28;20689;-78
2023/01/27 11:01:22;;;;;;;5.63;2.67;;;6.00;91.20;;;;;;4955780;29;20625;-78
2023/01/27 11:03:57;;;;;;;9.40;3.60;;;5.90;91.90;;;;;;4955795;28;20222;-80
2023/01/27 11:06:32;;;;;;;4.43;2.77;;;5.90;90.80;;;;;;4938482;28;20248;-79
2023/01/27 11:09:08;;;;;;;2.93;2.53;;;5.90;91.10;;;;;;4955451;28;20670;-79
2023/01/27 11:11:48;;;;;;;5.40;2.43;;;5.80;90.80;;;;;;4940332;29;20235;-79
2023/01/27 11:14:22;;;;;;;15.07;7.47;;;5.80;90.00;;;;;;4936056;29;20208;-75
2023/01/27 11:16:56;;;;;;;13.03;7.63;;;5.80;91.40;;;;;;4936274;29;20206;-80
2023/01/27 11:19:44;;;;;;;13.33;7.63;;;5.90;92.80;;;;;;4936354;29;20216;-80
2023/01/27 11:22:22;;;;;;;12.00;5.87;;;5.90;91.10;;;;;;4936111;29;20279;-77
2023/01/27 11:25:00;;;;;;;12.40;6.33;;;6.00;91.40;;;;;;4951114;28;20226;-78
2023/01/27 11:27:54;;;;;;;12.00;4.93;;;6.10;91.90;;;;;;4953602;28;20916;-78
2023/01/27 11:30:31;;;;;;;14.60;6.57;;;6.10;91.50;;;;;;4955183;28;20196;-80
2023/01/27 11:33:10;;;;;;;13.20;6.90;;;6.20;90.70;;;;;;4955258;29;20211;-78
2023/01/27 11:35:39;;;;;;;4.30;3.77;;;6.20;88.40;;;;;;4955122;29;20207;-76
2023/01/27 11:38:14;;;;;;;7.57;4.40;;;6.20;88.50;;;;;;4955272;28;20211;-78
2023/01/27 11:40:45;;;;;;;9.60;3.63;;;6.20;87.50;;;;;;4938299;29;20207;-77
2023/01/27 11:43:18;;;;;;;5.60;3.90;;;6.30;89.20;;;;;;4954539;29;20711;-79
2023/01/27 11:45:48;;;;;;;7.63;5.10;;;6.30;89.60;;;;;;4954211;28;20228;-79
2023/01/27 11:48:20;;;;;;;22.90;9.30;;;6.40;88.70;;;;;;4953478;29;20222;-77
2023/01/27 11:50:51;;;;;;;17.93;8.37;;;6.40;86.60;;;;;;4954064;28;20230;-77
2023/01/27 11:53:25;;;;;;;12.20;6.57;;;6.40;84.50;;;;;;4951577;28;20264;-77
2023/01/27 11:55:59;;;;;;;10.53;5.10;;;6.30;84.80;;;;;;4953545;28;20208;-78
2023/01/27 11:58:34;;;;;;;9.07;5.27;;;6.20;85.70;;;;;;4951567;29;20671;-79
2023/01/27 12:01:07;;;;;;;12.80;6.33;;;6.10;83.60;;;;;;4935507;29;20200;-79
2023/01/27 12:03:48;;;;;;;99.30;27.00;;;6.20;88.80;;;;;;4940437;28;20216;-78
2023/01/27 12:06:25;;;;;;;16.10;6.70;;;6.20;86.90;;;;;;4935483;29;20318;-79
2023/01/27 12:08:54;;;;;;;16.47;8.17;;;6.30;83.20;;;;;;4935254;29;20690;-80
2023/01/27 12:11:25;;;;;;;23.73;9.67;;;6.20;82.10;;;;;;4947065;29;20224;-79
2023/01/27 12:13:56;;;;;;;11.70;7.20;;;6.20;80.40;;;;;;4954364;29;20203;-79
2023/01/27 12:16:29;;;;;;;25.63;10.53;;;6.10;80.90;;;;;;4954414;28;20696;-79
2023/01/27 12:19:24;;;;;;;18.67;7.53;;;6.10;80.10;;;;;;4954298;28;20207;-79
2023/01/27 12:21:56;;;;;;;8.27;4.43;;;6.10;83.30;;;;;;4954509;28;20213;-81
2023/01/27 12:24:30;;;;;;;15.03;7.27;;;6.10;85.30;;;;;;4936777;29;20769;-79
2023/01/27 12:27:21;;;;;;;22.87;7.63;;;6.20;85.10;;;;;;4953862;29;20212;-79
2023/01/27 12:30:00;;;;;;;40.97;17.70;;;6.30;84.40;;;;;;4954307;28;20572;-79
2023/01/27 12:32:37;;;;;;;19.80;13.50;;;6.40;82.90;;;;;;4953829;28;20217;-79
2023/01/27 12:35:20;;;;;;;31.90;23.40;;;6.40;82.30;;;;;;4956142;28;20210;-78
2023/01/27 12:37:55;;;;;;;25.53;15.07;;;6.40;81.40;;;;;;4961232;28;20592;-78
2023/01/27 12:40:26;;;;;;;133.77;50.37;;;6.30;82.80;;;;;;4961088;28;20658;-77
2023/01/27 12:43:10;;;;;;;149.23;58.87;;;6.20;79.20;;;;;;4953834;28;20681;-78
2023/01/27 12:45:40;;;;;;;77.40;37.03;;;6.20;82.20;;;;;;4954083;29;20807;-79
2023/01/27 12:48:20;;;;;;;40.40;24.73;;;6.10;82.80;;;;;;4953875;29;20207;-77
2023/01/27 12:51:06;;;;;;;24.47;19.03;;;6.20;81.80;;;;;;4953783;28;20239;-76
2023/01/27 12:53:34;;;;;;;11.73;7.00;;;6.20;80.40;;;;;;4954077;28;20201;-76
2023/01/27 12:56:12;;;;;;;8.10;4.63;;;6.20;82.80;;;;;;4953309;28;20216;-75
2023/01/27 12:58:43;;;;;;;24.13;12.03;;;6.20;83.40;;;;;;4966582;28;20215;-77
2023/01/27 13:01:36;;;;;;;10.40;6.57;;;6.30;80.80;;;;;;4953956;29;20706;-76
2023/01/27 13:04:09;;;;;;;5.23;3.67;;;6.20;79.50;;;;;;4894312;29;20308;-78
2023/01/27 13:06:43;;;;;;;9.73;5.57;;;6.20;80.30;;;;;;4894674;29;20237;-75
2023/01/27 13:09:27;;;;;;;6.63;5.40;;;6.20;77.60;;;;;;4897649;29;20258;-79
2023/01/27 13:12:00;;;;;;;15.50;10.07;;;6.20;82.10;;;;;;4897491;29;20553;-76
2023/01/27 13:14:32;;;;;;;8.40;6.33;;;6.20;80.50;;;;;;4898579;29;20684;-77
2023/01/27 13:17:04;;;;;;;13.90;8.53;;;6.20;78.50;;;;;;4898478;29;20248;-78
2023/01/27 13:19:39;;;;;;;3.87;3.20;;;6.10;77.90;;;;;;4898422;29;20217;-77
2023/01/27 13:22:19;;;;;;;14.33;6.47;;;6.00;76.60;;;;;;4898188;29;21052;-78
2023/01/27 13:24:51;;;;;;;44.43;16.67;;;5.90;78.80;;;;;;4891562;29;20579;-76
2023/01/27 13:27:23;;;;;;;17.67;8.13;;;6.00;79.10;;;;;;4891956;29;20574;-78
2023/01/27 13:30:05;;;;;;;32.57;12.50;;;6.10;81.10;;;;;;4898117;29;20244;-77
2023/01/27 13:32:37;;;;;;;15.23;7.90;;;6.10;78.20;;;;;;4897426;29;20216;-78
2023/01/27 13:35:16;;;;;;;11.97;5.70;;;6.00;75.50;;;;;;4898207;29;20608;-77
2023/01/27 13:37:51;;;;;;;9.57;5.87;;;5.90;76.50;;;;;;4898162;29;20236;-80
2023/01/27 13:40:25;;;;;;;12.10;6.10;;;5.90;75.60;;;;;;4908159;29;20216;-78
2023/01/27 13:43:04;;;;;;;8.83;5.47;;;5.80;75.10;;;;;;4957073;29;20194;-80
2023/01/27 13:45:39;;;;;;;7.10;4.10;;;5.70;77.10;;;;;;4957506;29;20214;-78
2023/01/27 13:48:17;;;;;;;20.63;9.83;;;5.70;75.50;;;;;;4956991;28;20200;-77
2023/01/27 13:50:49;;;;;;;11.13;7.83;;;5.60;76.70;;;;;;4956986;29;20230;-77
2023/01/27 13:53:20;;;;;;;9.90;7.23;;;5.60;77.50;;;;;;4957092;28;20212;-78